createdAt,value
2023-09-06T00:01:07.225Z,5.40
2023-09-06T00:03:34.402Z,5.60
2023-09-06T00:06:01.180Z,4.90
2023-09-06T00:08:28.163Z,5.15
2023-09-06T00:10:54.726Z,5.65
2023-09-06T00:13:21.384Z,4.80
2023-09-06T00:15:48.324Z,4.80
2023-09-06T00:18:14.903Z,4.53
2023-09-06T00:20:41.564Z,4.35
2023-09-06T00:23:10.448Z,4.97
2023-09-06T00:25:37.879Z,5.13
2023-09-06T00:28:05.648Z,5.28
2023-09-06T00:30:32.102Z,5.18
2023-09-06T00:33:00.044Z,4.82
2023-09-06T00:35:27.624Z,4.53
2023-09-06T00:37:54.778Z,5.22
2023-09-06T00:40:22.493Z,4.30
2023-09-06T00:42:49.523Z,4.80
2023-09-06T00:45:16.759Z,4.88
2023-09-06T00:47:43.748Z,4.68
2023-09-06T00:50:15.531Z,4.30
2023-09-06T00:52:42.929Z,4.55
2023-09-06T00:55:09.705Z,4.38
2023-09-06T00:57:36.620Z,4.28
2023-09-06T01:00:06.931Z,4.72
2023-09-06T01:02:33.522Z,4.45
2023-09-06T01:05:00.002Z,4.63
2023-09-06T01:07:28.972Z,5.25
2023-09-06T01:09:55.606Z,4.65
2023-09-06T01:12:22.026Z,4.78
2023-09-06T01:14:48.463Z,5.30
2023-09-06T01:17:17.392Z,4.20
2023-09-06T01:19:46.105Z,4.70
2023-09-06T01:22:12.627Z,4.47
2023-09-06T01:24:39.408Z,5.15
2023-09-06T01:27:06.446Z,5.00
2023-09-06T01:29:32.899Z,4.50
2023-09-06T01:31:59.270Z,4.43
2023-09-06T01:34:25.720Z,4.65
2023-09-06T01:36:52.205Z,4.47
2023-09-06T01:39:18.627Z,4.90
2023-09-06T01:41:45.062Z,4.47
2023-09-06T01:44:11.468Z,4.50
2023-09-06T01:46:37.956Z,4.57
2023-09-06T01:49:04.521Z,4.68
2023-09-06T01:51:32.361Z,4.13
2023-09-06T01:53:58.842Z,5.07
2023-09-06T01:56:25.238Z,4.72
2023-09-06T01:58:51.638Z,4.38
2023-09-06T02:01:18.102Z,4.47
2023-09-06T02:03:44.678Z,4.18
2023-09-06T02:06:11.156Z,3.97
2023-09-06T02:08:37.586Z,4.30
2023-09-06T02:11:04.444Z,4.47
2023-09-06T02:13:30.846Z,4.68
2023-09-06T02:15:57.443Z,5.03
2023-09-06T02:18:25.336Z,4.10
2023-09-06T02:20:51.772Z,4.28
2023-09-06T02:23:18.282Z,5.07
2023-09-06T02:25:45.502Z,3.97
2023-09-06T02:28:11.977Z,5.07
2023-09-06T02:30:38.926Z,4.57
2023-09-06T02:33:06.259Z,4.13
2023-09-06T02:35:41.283Z,4.82
2023-09-06T02:38:14.141Z,5.32
2023-09-06T02:40:43.973Z,5.40
2023-09-06T02:43:12.394Z,4.72
2023-09-06T02:45:39.126Z,5.05
2023-09-06T02:48:13.085Z,4.93
2023-09-06T02:50:41.542Z,4.57
2023-09-06T02:53:20.704Z,4.95
2023-09-06T02:55:49.144Z,4.80
2023-09-06T02:58:16.496Z,4.82
2023-09-06T03:00:44.468Z,5.18
2023-09-06T03:03:11.402Z,5.07
2023-09-06T03:05:43.723Z,4.55
2023-09-06T03:08:11.089Z,5.47
2023-09-06T03:10:37.970Z,5.03
2023-09-06T03:13:06.716Z,5.55
2023-09-06T03:15:33.287Z,4.93
2023-09-06T03:18:00.190Z,4.97
2023-09-06T03:20:43.979Z,5.00
2023-09-06T03:23:21.258Z,5.70
2023-09-06T03:25:50.533Z,5.32
2023-09-06T03:28:19.788Z,4.97
2023-09-06T03:30:46.770Z,5.13
2023-09-06T03:33:13.341Z,5.10
2023-09-06T03:35:39.775Z,5.13
2023-09-06T03:38:26.743Z,5.20
2023-09-06T03:40:53.604Z,5.25
2023-09-06T03:43:31.753Z,4.47
2023-09-06T03:45:59.739Z,5.05
2023-09-06T03:48:29.111Z,5.25
2023-09-06T03:50:57.072Z,5.05
2023-09-06T03:53:26.916Z,4.65
2023-09-06T03:55:58.693Z,5.35
2023-09-06T03:58:26.182Z,5.40
2023-09-06T04:00:53.492Z,5.30
2023-09-06T04:03:20.383Z,5.35
2023-09-06T04:05:47.379Z,5.40
2023-09-06T04:08:19.884Z,5.35
2023-09-06T04:10:46.649Z,5.45
2023-09-06T04:13:13.928Z,5.30
2023-09-06T04:15:41.313Z,5.57
2023-09-06T04:18:08.504Z,5.35
2023-09-06T04:20:38.515Z,4.72
2023-09-06T04:23:06.671Z,5.20
2023-09-06T04:25:42.811Z,6.28
2023-09-06T04:28:10.188Z,5.57
2023-09-06T04:30:38.231Z,5.25
2023-09-06T04:33:05.677Z,5.38
2023-09-06T04:35:44.894Z,5.57
2023-09-06T04:38:15.764Z,5.63
2023-09-06T04:40:45.668Z,5.63
2023-09-06T04:43:13.157Z,5.20
2023-09-06T04:45:39.647Z,5.53
2023-09-06T04:48:10.097Z,5.93
2023-09-06T04:50:40.304Z,5.90
2023-09-06T04:53:08.944Z,5.72
2023-09-06T04:55:38.284Z,5.20
2023-09-06T04:58:08.845Z,5.28
2023-09-06T05:00:42.548Z,5.50
2023-09-06T05:03:12.062Z,5.88
2023-09-06T05:05:39.174Z,5.63
2023-09-06T05:08:05.932Z,5.40
2023-09-06T05:10:32.617Z,5.68
2023-09-06T05:12:59.156Z,5.63
2023-09-06T05:15:25.616Z,5.85
2023-09-06T05:17:51.997Z,5.63
2023-09-06T05:20:34.813Z,5.57
2023-09-06T05:23:02.691Z,5.20
2023-09-06T05:25:29.261Z,5.95
2023-09-06T05:27:58.749Z,5.78
2023-09-06T05:30:26.115Z,6.15
2023-09-06T05:32:52.672Z,6.07
2023-09-06T05:35:19.161Z,6.20
2023-09-06T05:37:45.593Z,5.50
2023-09-06T05:40:13.690Z,5.32
2023-09-06T05:42:40.914Z,5.78
2023-09-06T05:45:09.536Z,5.53
2023-09-06T05:47:37.340Z,6.10
2023-09-06T05:50:04.013Z,5.70
2023-09-06T05:52:30.477Z,6.15
2023-09-06T05:54:56.905Z,5.90
2023-09-06T05:57:23.307Z,6.07
2023-09-06T05:59:49.835Z,6.60
2023-09-06T06:02:16.449Z,5.93
2023-09-06T06:04:43.080Z,5.90
2023-09-06T06:07:10.066Z,6.43
2023-09-06T06:09:36.729Z,5.97
2023-09-06T06:12:04.900Z,5.65
2023-09-06T06:14:31.723Z,6.32
2023-09-06T06:17:00.985Z,6.43
2023-09-06T06:19:27.424Z,6.25
2023-09-06T06:21:54.646Z,6.10
2023-09-06T06:24:21.090Z,6.35
2023-09-06T06:26:49.047Z,6.25
2023-09-06T06:29:15.815Z,6.72
2023-09-06T06:31:42.471Z,5.80
2023-09-06T06:34:08.988Z,6.30
2023-09-06T06:36:35.994Z,6.07
2023-09-06T06:39:02.446Z,5.90
2023-09-06T06:41:28.769Z,5.55
2023-09-06T06:43:57.014Z,5.60
2023-09-06T06:46:24.995Z,5.85
2023-09-06T06:48:51.656Z,5.35
2023-09-06T06:51:18.784Z,5.95
2023-09-06T06:53:45.253Z,5.68
2023-09-06T06:56:11.731Z,6.43
2023-09-06T06:58:38.359Z,6.07
2023-09-06T07:01:04.884Z,5.85
2023-09-06T07:03:32.122Z,5.55
2023-09-06T07:05:58.874Z,6.05
2023-09-06T07:08:27.717Z,5.80
2023-09-06T07:10:54.477Z,4.80
2023-09-06T07:13:21.599Z,5.40
2023-09-06T07:15:48.153Z,5.47
2023-09-06T07:18:15.915Z,6.05
2023-09-06T07:20:42.850Z,5.43
2023-09-06T07:23:09.533Z,5.35
2023-09-06T07:25:36.005Z,5.38
2023-09-06T07:28:02.449Z,4.95
2023-09-06T07:30:28.926Z,4.90
2023-09-06T07:32:55.484Z,5.15
2023-09-06T07:35:22.042Z,4.80
2023-09-06T07:37:48.512Z,4.70
2023-09-06T07:40:15.924Z,5.35
2023-09-06T07:42:42.386Z,5.05
2023-09-06T07:45:09.138Z,5.35
2023-09-06T07:47:36.265Z,5.75
2023-09-06T07:50:02.914Z,4.90
2023-09-06T07:52:29.308Z,5.35
2023-09-06T07:55:01.325Z,5.28
2023-09-06T07:57:27.725Z,5.03
2023-09-06T07:59:54.081Z,5.00
2023-09-06T08:02:20.477Z,4.65
2023-09-06T08:04:48.364Z,4.80
2023-09-06T08:07:14.916Z,5.10
2023-09-06T08:09:41.262Z,4.65
2023-09-06T08:12:07.785Z,4.22
2023-09-06T08:14:34.764Z,4.72
2023-09-06T08:17:01.137Z,4.28
2023-09-06T08:19:27.502Z,3.70
2023-09-06T08:21:53.937Z,4.90
2023-09-06T08:24:20.416Z,4.75
2023-09-06T08:26:49.298Z,4.00
2023-09-06T08:29:15.815Z,4.93
2023-09-06T08:31:42.333Z,4.30
2023-09-06T08:34:12.607Z,5.55
2023-09-06T08:36:39.030Z,4.00
2023-09-06T08:39:07.928Z,4.03
2023-09-06T08:41:35.258Z,4.07
2023-09-06T08:44:04.866Z,4.55
2023-09-06T08:46:31.952Z,3.90
2023-09-06T08:48:59.246Z,3.83
2023-09-06T08:51:26.465Z,3.55
2023-09-06T08:53:53.465Z,4.10
2023-09-06T08:56:20.461Z,3.80
2023-09-06T08:58:46.879Z,3.47
2023-09-06T09:01:13.290Z,4.97
2023-09-06T09:03:39.892Z,3.92
2023-09-06T09:06:10.396Z,3.80
2023-09-06T09:08:37.334Z,4.03
2023-09-06T09:11:16.989Z,3.92
2023-09-06T09:13:43.825Z,4.15
2023-09-06T09:16:10.962Z,4.70
2023-09-06T09:18:38.135Z,4.22
2023-09-06T09:21:05.022Z,3.55
2023-09-06T09:23:32.605Z,3.78
2023-09-06T09:25:59.308Z,3.50
2023-09-06T09:28:25.847Z,4.15
2023-09-06T09:30:52.773Z,4.20
2023-09-06T09:33:19.680Z,3.80
2023-09-06T09:35:47.447Z,4.07
2023-09-06T09:38:13.880Z,3.53
2023-09-06T09:43:10.169Z,3.75
2023-09-06T09:45:41.318Z,3.28
2023-09-06T09:48:08.920Z,4.03
2023-09-06T09:50:36.171Z,3.85
2023-09-06T09:53:19.933Z,3.70
2023-09-06T09:55:48.931Z,3.25
2023-09-06T09:58:16.654Z,3.80
2023-09-06T10:00:43.521Z,3.53
2023-09-06T10:03:10.583Z,3.97
2023-09-06T10:05:37.859Z,3.63
2023-09-06T10:08:06.052Z,3.92
2023-09-06T10:10:33.967Z,3.83
2023-09-06T10:13:08.005Z,4.10
2023-09-06T10:15:35.876Z,4.63
2023-09-06T10:18:02.521Z,4.00
2023-09-06T10:20:31.533Z,3.83
2023-09-06T10:22:59.058Z,3.42
2023-09-06T10:25:26.738Z,3.35
2023-09-06T10:27:54.291Z,3.17
2023-09-06T10:30:41.784Z,2.90
2023-09-06T10:33:09.592Z,3.13
2023-09-06T10:35:42.251Z,2.60
2023-09-06T10:38:12.856Z,2.40
2023-09-06T10:41:06.362Z,2.78
2023-09-06T10:43:44.712Z,3.03
2023-09-06T10:46:11.177Z,3.03
2023-09-06T10:48:38.050Z,2.45
2023-09-06T10:51:04.866Z,2.75
2023-09-06T10:53:31.448Z,2.28
2023-09-06T10:55:59.579Z,2.10
2023-09-06T10:58:26.031Z,2.03
2023-09-06T11:01:15.517Z,2.40
2023-09-06T11:03:42.708Z,2.22
2023-09-06T11:06:10.716Z,2.30
2023-09-06T11:08:39.950Z,2.50
2023-09-06T11:11:08.984Z,2.33
2023-09-06T11:13:36.685Z,2.38
2023-09-06T11:16:11.472Z,3.05
2023-09-06T11:18:50.490Z,2.50
2023-09-06T11:21:26.263Z,2.90
2023-09-06T11:23:53.894Z,2.53
2023-09-06T11:26:20.667Z,2.50
2023-09-06T11:28:50.228Z,2.58
2023-09-06T11:31:20.298Z,2.50
2023-09-06T11:33:46.778Z,2.67
2023-09-06T11:36:14.573Z,2.08
2023-09-06T11:38:43.999Z,2.00
2023-09-06T11:41:12.821Z,2.17
2023-09-06T11:43:44.088Z,2.20
2023-09-06T11:46:13.045Z,2.00
2023-09-06T11:48:40.705Z,2.08
2023-09-06T11:51:13.144Z,2.58
2023-09-06T11:53:41.786Z,2.38
2023-09-06T11:56:09.289Z,2.28
2023-09-06T11:58:43.875Z,2.13
2023-09-06T12:01:12.278Z,2.55
2023-09-06T12:03:45.734Z,2.20
2023-09-06T12:06:13.721Z,2.33
2023-09-06T12:08:40.207Z,2.10
2023-09-06T12:11:07.764Z,1.77
2023-09-06T12:13:36.472Z,2.30
2023-09-06T12:16:03.777Z,2.15
2023-09-06T12:18:30.913Z,1.92
2023-09-06T12:20:58.252Z,2.00
2023-09-06T12:23:27.285Z,1.98
2023-09-06T12:25:53.812Z,1.85
2023-09-06T12:28:20.238Z,1.70
2023-09-06T12:30:46.707Z,2.28
2023-09-06T12:33:15.699Z,2.05
2023-09-06T12:35:42.453Z,1.85
2023-09-06T12:38:09.581Z,1.77
2023-09-06T12:40:36.158Z,2.03
2023-09-06T12:43:04.499Z,2.17
2023-09-06T12:45:32.042Z,2.05
2023-09-06T12:47:59.598Z,1.70
2023-09-06T12:50:26.436Z,1.80
2023-09-06T12:52:53.619Z,2.03
2023-09-06T12:55:20.384Z,1.83
2023-09-06T12:57:49.774Z,2.00
2023-09-06T13:00:16.349Z,1.98
2023-09-06T13:02:43.099Z,2.22
2023-09-06T13:05:10.143Z,2.08
2023-09-06T13:07:37.532Z,2.35
2023-09-06T13:10:05.901Z,2.42
2023-09-06T13:12:35.791Z,2.38
2023-09-06T13:15:02.337Z,1.95
2023-09-06T13:17:28.893Z,1.80
2023-09-06T13:19:56.025Z,2.10
2023-09-06T13:22:22.800Z,2.05
2023-09-06T13:24:50.059Z,2.05
2023-09-06T13:27:16.567Z,1.90
2023-09-06T13:29:42.962Z,1.95
2023-09-06T13:32:09.419Z,1.95
2023-09-06T13:34:37.623Z,2.00
2023-09-06T13:37:05.685Z,2.00
2023-09-06T13:39:33.144Z,2.47
2023-09-06T13:42:01.818Z,2.08
2023-09-06T13:44:32.099Z,2.20
2023-09-06T13:47:02.228Z,2.28
2023-09-06T13:49:28.661Z,1.98
2023-09-06T13:51:55.098Z,2.13
2023-09-06T13:54:21.819Z,1.95
2023-09-06T13:56:51.160Z,2.10
2023-09-06T13:59:21.819Z,2.30
2023-09-06T14:01:48.239Z,2.00
2023-09-06T14:04:15.951Z,1.80
2023-09-06T14:06:43.256Z,1.98
2023-09-06T14:09:11.573Z,2.33
2023-09-06T14:11:38.509Z,2.20
2023-09-06T14:14:05.838Z,2.22
2023-09-06T14:16:32.600Z,2.30
2023-09-06T14:18:59.521Z,2.15
2023-09-06T14:21:26.135Z,2.17
2023-09-06T14:23:52.995Z,2.00
2023-09-06T14:26:19.490Z,2.72
2023-09-06T14:28:45.921Z,2.17
2023-09-06T14:31:13.075Z,2.90
2023-09-06T14:33:40.098Z,2.22
2023-09-06T14:36:08.172Z,1.85
2023-09-06T14:38:35.149Z,2.10
2023-09-06T14:41:01.741Z,2.00
2023-09-06T14:43:29.348Z,2.35
2023-09-06T14:46:03.836Z,2.28
2023-09-06T14:48:31.239Z,2.80
2023-09-06T14:50:58.958Z,2.20
2023-09-06T14:53:25.437Z,2.55
2023-09-06T14:55:52.129Z,1.85
2023-09-06T14:58:18.466Z,2.50
2023-09-06T15:00:44.931Z,2.15
2023-09-06T15:03:11.495Z,2.25
2023-09-06T15:05:39.990Z,2.50
2023-09-06T15:08:06.747Z,2.30
2023-09-06T15:10:33.728Z,2.35
2023-09-06T15:13:01.203Z,2.60
2023-09-06T15:15:27.906Z,2.30
2023-09-06T15:17:54.799Z,2.30
2023-09-06T15:20:22.379Z,2.50
2023-09-06T15:22:48.733Z,2.70
2023-09-06T15:25:15.199Z,2.35
2023-09-06T15:27:41.711Z,2.40
2023-09-06T15:30:08.808Z,2.60
2023-09-06T15:32:38.779Z,2.35
2023-09-06T15:35:08.729Z,2.22
2023-09-06T15:37:35.828Z,2.53
2023-09-06T15:40:02.282Z,2.63
2023-09-06T15:42:28.779Z,2.20
2023-09-06T15:44:55.169Z,2.70
2023-09-06T15:47:21.587Z,2.10
2023-09-06T15:49:51.615Z,2.58
2023-09-06T15:52:17.913Z,2.55
2023-09-06T15:54:45.346Z,2.08
2023-09-06T15:57:11.852Z,2.03
2023-09-06T15:59:40.567Z,2.65
2023-09-06T16:02:07.228Z,2.78
2023-09-06T16:04:34.185Z,2.50
2023-09-06T16:07:00.831Z,2.50
2023-09-06T16:09:27.216Z,2.75
2023-09-06T16:11:57.610Z,2.60
2023-09-06T16:14:25.818Z,2.38
2023-09-06T16:16:53.513Z,2.60
2023-09-06T16:19:22.148Z,2.22
2023-09-06T16:21:49.017Z,2.67
2023-09-06T16:24:15.700Z,2.40
2023-09-06T16:26:42.190Z,2.60
2023-09-06T16:29:11.935Z,2.30
2023-09-06T16:31:38.861Z,2.25
2023-09-06T16:34:05.394Z,2.30
2023-09-06T16:36:32.768Z,2.53
2023-09-06T16:38:59.114Z,2.33
2023-09-06T16:41:25.610Z,2.13
2023-09-06T16:43:52.048Z,2.90
2023-09-06T16:46:18.501Z,2.70
2023-09-06T16:48:44.982Z,2.53
2023-09-06T16:51:11.382Z,2.38
2023-09-06T16:53:37.721Z,2.65
2023-09-06T16:56:04.535Z,2.38
2023-09-06T16:58:31.700Z,2.65
2023-09-06T17:00:58.529Z,2.80
2023-09-06T17:03:26.465Z,2.70
2023-09-06T17:05:52.878Z,2.50
2023-09-06T17:08:20.022Z,2.60
2023-09-06T17:10:46.965Z,2.33
2023-09-06T17:13:13.436Z,3.03
2023-09-06T17:15:40.664Z,4.03
2023-09-06T17:18:08.188Z,4.03
2023-09-06T17:20:36.286Z,4.65
2023-09-06T17:23:02.682Z,4.00
2023-09-06T17:25:29.303Z,3.03
2023-09-06T17:27:55.826Z,3.00
2023-09-06T17:30:23.991Z,2.95
2023-09-06T17:33:04.340Z,2.72
2023-09-06T17:35:34.951Z,2.85
2023-09-06T17:38:06.392Z,2.33
2023-09-06T17:40:36.833Z,2.47
2023-09-06T17:43:03.651Z,3.03
2023-09-06T17:45:30.373Z,2.83
2023-09-06T17:47:57.650Z,2.95
2023-09-06T17:50:24.686Z,2.83
2023-09-06T17:52:52.234Z,3.35
2023-09-06T17:55:20.891Z,2.70
2023-09-06T17:57:48.615Z,3.10
2023-09-06T18:00:19.646Z,2.90
2023-09-06T18:02:49.156Z,2.83
2023-09-06T18:05:18.140Z,3.35
2023-09-06T18:07:45.126Z,2.80
2023-09-06T18:10:11.628Z,3.13
2023-09-06T18:12:39.848Z,3.08
2023-09-06T18:15:09.978Z,2.65
2023-09-06T18:17:40.069Z,3.30
2023-09-06T18:20:10.514Z,2.97
2023-09-06T18:22:37.074Z,2.90
2023-09-06T18:25:04.209Z,3.20
2023-09-06T18:27:30.713Z,2.60
2023-09-06T18:29:58.916Z,2.95
2023-09-06T18:32:25.520Z,2.50
2023-09-06T18:34:52.665Z,2.97
2023-09-06T18:37:19.179Z,2.70
2023-09-06T18:39:47.730Z,2.95
2023-09-06T18:42:14.188Z,2.67
2023-09-06T18:44:40.749Z,2.75
2023-09-06T18:47:09.938Z,2.95
2023-09-06T18:49:38.828Z,2.42
2023-09-06T18:52:05.921Z,2.72
2023-09-06T18:54:32.266Z,2.50
2023-09-06T18:56:58.606Z,2.97
2023-09-06T18:59:24.952Z,2.58
2023-09-06T19:01:51.399Z,2.53
2023-09-06T19:04:17.835Z,2.92
2023-09-06T19:06:44.304Z,2.90
2023-09-06T19:09:10.679Z,3.00
2023-09-06T19:11:38.061Z,3.13
2023-09-06T19:14:05.156Z,2.70
2023-09-06T19:16:33.309Z,2.88
2023-09-06T19:19:01.043Z,2.72
2023-09-06T19:21:27.407Z,2.80
2023-09-06T19:23:55.315Z,2.67
2023-09-06T19:26:21.767Z,2.50
2023-09-06T19:28:49.236Z,2.63
2023-09-06T19:31:16.060Z,2.88
2023-09-06T19:33:42.444Z,2.83
2023-09-06T19:36:08.886Z,3.03
2023-09-06T19:38:35.271Z,3.30
2023-09-06T19:41:01.669Z,2.78
2023-09-06T19:43:28.018Z,2.67
2023-09-06T19:45:55.382Z,3.25
2023-09-06T19:48:22.697Z,2.67
2023-09-06T19:50:49.679Z,3.13
2023-09-06T19:53:16.165Z,2.95
2023-09-06T19:55:43.724Z,2.83
2023-09-06T19:58:11.796Z,2.95
2023-09-06T20:00:38.426Z,3.58
2023-09-06T20:03:05.438Z,2.97
2023-09-06T20:05:31.956Z,3.53
2023-09-06T20:07:58.316Z,3.78
2023-09-06T20:10:24.844Z,3.30
2023-09-06T20:12:51.254Z,3.65
2023-09-06T20:15:17.754Z,3.20
2023-09-06T20:17:44.302Z,3.60
2023-09-06T20:20:10.941Z,3.58
2023-09-06T20:22:37.348Z,3.17
2023-09-06T20:25:04.229Z,3.53
2023-09-06T20:27:31.407Z,3.92
2023-09-06T20:29:57.880Z,3.55
2023-09-06T20:32:24.425Z,3.30
2023-09-06T20:34:50.797Z,3.35
2023-09-06T20:37:17.230Z,3.38
2023-09-06T20:39:44.109Z,3.40
2023-09-06T20:42:10.542Z,3.47
2023-09-06T20:44:36.893Z,3.10
2023-09-06T20:47:05.271Z,3.15
2023-09-06T20:49:31.929Z,3.20
2023-09-06T20:51:58.438Z,4.10
2023-09-06T20:54:24.815Z,3.83
2023-09-06T20:56:51.202Z,3.70
2023-09-06T20:59:17.699Z,3.60
2023-09-06T21:01:44.207Z,4.03
2023-09-06T21:04:10.703Z,3.60
2023-09-06T21:06:37.402Z,3.80
2023-09-06T21:09:06.045Z,3.78
2023-09-06T21:11:32.928Z,4.28
2023-09-06T21:13:59.292Z,3.63
2023-09-06T21:16:25.695Z,3.28
2023-09-06T21:18:52.462Z,3.78
2023-09-06T21:21:18.969Z,3.35
2023-09-06T21:23:45.380Z,3.72
2023-09-06T21:26:11.720Z,3.47
2023-09-06T21:28:38.222Z,3.15
2023-09-06T21:31:05.073Z,3.78
2023-09-06T21:33:32.269Z,4.03
2023-09-06T21:35:58.815Z,3.97
2023-09-06T21:38:25.179Z,4.35
2023-09-06T21:40:51.505Z,4.05
2023-09-06T21:43:19.913Z,3.97
2023-09-06T21:45:46.742Z,4.00
2023-09-06T21:48:13.723Z,4.13
2023-09-06T21:50:41.848Z,4.03
2023-09-06T21:53:08.548Z,4.10
2023-09-06T21:55:35.468Z,4.57
2023-09-06T21:58:08.989Z,3.95
2023-09-06T22:00:37.460Z,4.03
2023-09-06T22:03:04.416Z,4.43
2023-09-06T22:05:31.261Z,4.40
2023-09-06T22:07:57.641Z,4.55
2023-09-06T22:10:24.037Z,4.20
2023-09-06T22:12:50.668Z,4.10
2023-09-06T22:15:17.208Z,4.38
2023-09-06T22:17:43.726Z,4.32
2023-09-06T22:20:10.534Z,4.20
2023-09-06T22:22:37.081Z,4.60
2023-09-06T22:25:04.449Z,3.97
2023-09-06T22:27:30.966Z,4.22
2023-09-06T22:29:57.508Z,4.43
2023-09-06T22:32:23.990Z,4.40
2023-09-06T22:34:50.407Z,3.97
2023-09-06T22:37:16.807Z,4.07
2023-09-06T22:39:43.259Z,4.70
2023-09-06T22:42:09.685Z,4.20
2023-09-06T22:44:36.414Z,4.32
2023-09-06T22:47:04.254Z,4.10
2023-09-06T22:49:30.871Z,4.20
2023-09-06T22:51:57.479Z,3.53
2023-09-06T22:54:23.901Z,4.30
2023-09-06T22:56:50.285Z,4.13
2023-09-06T22:59:16.825Z,4.60
2023-09-06T23:01:43.402Z,4.22
2023-09-06T23:04:09.970Z,4.60
2023-09-06T23:06:37.049Z,5.13
2023-09-06T23:09:07.925Z,4.15
2023-09-06T23:11:37.484Z,4.43
2023-09-06T23:14:06.860Z,4.60
2023-09-06T23:16:36.863Z,4.55
2023-09-06T23:19:04.399Z,4.50
2023-09-06T23:21:38.993Z,4.47
2023-09-06T23:24:13.256Z,4.50
2023-09-06T23:26:40.231Z,4.72
2023-09-06T23:29:08.411Z,4.63
2023-09-06T23:31:40.241Z,5.10
2023-09-06T23:34:16.203Z,4.70
2023-09-06T23:36:42.722Z,4.55
2023-09-06T23:39:12.838Z,5.03
2023-09-06T23:41:41.449Z,4.15
2023-09-06T23:44:09.605Z,4.57
2023-09-06T23:46:36.605Z,4.55
2023-09-06T23:49:03.236Z,5.20
2023-09-06T23:51:30.901Z,4.70
2023-09-06T23:53:57.465Z,4.82
2023-09-06T23:56:23.846Z,4.65
2023-09-06T23:58:50.188Z,4.50
